Time,TemperatureF,DewpointF,PressureIn,WindDirection,WindDirectionDegrees,WindSpeedMPH,WindSpeedGustMPH,Humidity,HourlyPrecipIn,Conditions,Clouds,dailyrainin,SolarRadiationWatts/m^2,SoftwareType,DateUTC
2013-03-17 00:00:00,49.4,46.6,30.02,SSE,165,0.0,0.0,90,0.00,CLR,SKC,0.00,0.0,WeatherDisplay:10.37,2013-03-17 07:00:00,
2013-03-17 00:05:00,49.3,46.5,30.02,SSE,165,0.0,0.0,90,0.00,CLR,SKC,0.00,0.0,WeatherDisplay:10.37,2013-03-17 07:05:00,
2013-03-17 00:10:00,49.2,46.4,30.02,SSE,165,0.0,0.0,90,0.00,,SKC,0.00,0.0,WeatherDisplay:10.37,2013-03-17 07:10:00,
2013-03-17 00:15:00,49.0,46.2,30.02,SSE,165,0.0,0.0,90,0.00,,SKC,0.00,0.0,WeatherDisplay:10.37,2013-03-17 07:15:00,
2013-03-17 00:20:00,48.8,46.0,30.02,NNE,27,4.0,4.0,90,0.00,,SKC,0.00,0.0,WeatherDisplay:10.37,2013-03-17 07:20:00,
2013-03-17 00:25:00,48.5,45.7,30.02,NNE,27,3.5,3.5,90,0.00,,SKC,0.00,0.0,WeatherDisplay:10.37,2013-03-17 07:25:00,
2013-03-17 00:30:00,48.2,45.4,30.02,NNE,27,0.0,0.0,90,0.00,,SKC,0.00,0.0,WeatherDisplay:10.37,2013-03-17 07:30:00,
2013-03-17 00:35:00,48.1,45.3,30.02,NNE,27,1.2,0.0,90,0.00,,SKC,0.00,0.0,WeatherDisplay:10.37,2013-03-17 07:35:00,
2013-03-17 00:40:00,48.2,45.7,30.02,NNE,28,0.0,0.0,91,0.00,,SKC,0.00,0.0,WeatherDisplay:10.37,2013-03-17 07:40:00,
2013-03-17 00:45:00,48.2,45.7,30.02,NNE,27,0.0,0.0,91,0.00,,SKC,0.00,0.0,WeatherDisplay:10.37,2013-03-17 07:45:00,
2013-03-17 00:50:00,47.9,45.4,30.02,NNE,27,1.2,1.2,91,0.00,,SKC,0.00,0.0,WeatherDisplay:10.37,2013-03-17 07:50:00,
2013-03-17 00:55:00,47.8,45.3,30.02,NNE,27,0.0,0.0,91,0.00,,SKC,0.00,0.0,WeatherDisplay:10.37,2013-03-17 07:55:00,
2013-03-17 01:00:00,47.8,45.3,30.02,NNE,27,0.0,0.0,91,0.00,,SKC,0.00,0.0,WeatherDisplay:10.37,2013-03-17 08:00:00,
2013-03-17 01:05:00,47.7,45.2,30.02,NNE,27,0.0,0.0,91,0.00,,SKC,0.00,0.0,WeatherDisplay:10.37,2013-03-17 08:05:00,
2013-03-17 01:10:00,47.8,45.3,30.02,NNE,27,1.2,0.0,91,0.00,,SKC,0.00,0.0,WeatherDisplay:10.37,2013-03-17 08:10:00,
2013-03-17 01:15:00,47.8,45.3,30.02,NNE,27,2.3,2.3,91,0.00,,SKC,0.00,0.0,WeatherDisplay:10.37,2013-03-17 08:15:00,
2013-03-17 01:20:00,47.4,44.9,30.02,NNE,28,0.0,0.2,91,0.00,,SKC,0.00,0.0,WeatherDisplay:10.37,2013-03-17 08:20:00,
2013-03-17 01:25:00,47.2,44.7,30.02,NNE,28,0.0,0.0,91,0.00,,SKC,0.00,0.0,WeatherDisplay:10.37,2013-03-17 08:25:00,
2013-03-17 01:30:00,46.9,44.4,30.02,NNE,27,2.3,2.3,91,0.00,,SKC,0.00,0.0,WeatherDisplay:10.37,2013-03-17 08:30:00,
2013-03-17 01:35:00,46.9,44.4,30.02,NNE,27,2.3,2.3,91,0.00,,SKC,0.00,0.0,WeatherDisplay:10.37,2013-03-17 08:35:00,
2013-03-17 01:40:00,46.7,44.2,30.02,NNE,27,1.2,0.0,91,0.00,,SKC,0.00,0.0,WeatherDisplay:10.37,2013-03-17 08:40:00,
2013-03-17 01:45:00,46.7,44.2,30.02,NNE,27,2.3,2.3,91,0.00,,SKC,0.00,0.0,WeatherDisplay:10.37,2013-03-17 08:45:00,
2013-03-17 01:50:00,46.5,44.0,30.02,NNE,28,3.5,3.5,91,0.00,,SKC,0.00,0.0,WeatherDisplay:10.37,2013-03-17 08:50:00,
2013-03-17 01:55:00,46.4,43.9,30.02,NNE,28,2.3,2.3,91,0.00,,SKC,0.00,0.0,WeatherDisplay:10.37,2013-03-17 08:55:00,
2013-03-17 02:00:00,46.3,43.8,30.02,NNE,27,0.0,0.0,91,0.00,,SKC,0.00,0.0,WeatherDisplay:10.37,2013-03-17 09:00:00,
2013-03-17 02:05:00,46.2,43.7,30.02,NNE,28,0.0,0.0,91,0.00,,SKC,0.00,0.0,WeatherDisplay:10.37,2013-03-17 09:05:00,
2013-03-17 02:10:00,46.1,43.6,30.02,NNE,27,1.2,1.2,91,0.00,,SKC,0.00,0.0,WeatherDisplay:10.37,2013-03-17 09:10:00,
2013-03-17 02:15:00,46.0,43.5,30.02,NNE,27,1.2,1.2,91,0.00,,SKC,0.00,0.0,WeatherDisplay:10.37,2013-03-17 09:15:00,
2013-03-17 02:20:00,45.7,43.2,30.02,NNE,28,2.3,2.3,91,0.00,,SKC,0.00,0.0,WeatherDisplay:10.37,2013-03-17 09:20:00,
2013-03-17 02:26:00,45.7,43.2,30.02,NNE,27,2.3,2.3,91,0.00,,SKC,0.00,0.0,WeatherDisplay:10.37,2013-03-17 09:26:00,
2013-03-17 02:31:00,45.5,43.0,30.02,NNE,26,3.5,3.5,91,0.00,,SKC,0.00,0.0,WeatherDisplay:10.37,2013-03-17 09:31:00,
2013-03-17 02:36:00,45.5,43.3,30.02,NNE,26,2.3,2.3,92,0.00,,SKC,0.00,0.0,WeatherDisplay:10.37,2013-03-17 09:36:00,
2013-03-17 02:41:00,45.5,43.0,30.02,NNE,26,3.5,3.5,91,0.00,,SKC,0.00,0.0,WeatherDisplay:10.37,2013-03-17 09:41:00,
2013-03-17 02:46:00,45.5,43.3,30.02,NNE,26,3.0,3.0,92,0.00,,SKC,0.00,0.0,WeatherDisplay:10.37,2013-03-17 09:46:00,
2013-03-17 02:51:00,45.4,43.2,30.02,NE,38,2.3,2.3,92,0.00,,SKC,0.00,0.0,WeatherDisplay:10.37,2013-03-17 09:51:00,
2013-03-17 02:56:00,45.7,43.5,30.02,NE,38,1.2,1.2,92,0.00,,SKC,0.00,0.0,WeatherDisplay:10.37,2013-03-17 09:56:00,
2013-03-17 03:02:00,45.6,43.4,30.02,NE,38,1.2,0.0,92,0.00,,SKC,0.00,0.0,WeatherDisplay:10.37,2013-03-17 10:02:00,
2013-03-17 03:07:00,45.5,43.3,30.02,NE,38,0.0,0.0,92,0.00,,SKC,0.00,0.0,WeatherDisplay:10.37,2013-03-17 10:07:00,
2013-03-17 03:12:00,45.4,43.2,30.02,NE,38,1.0,0.0,92,0.00,,SKC,0.00,0.0,WeatherDisplay:10.37,2013-03-17 10:12:00,
2013-03-17 03:17:00,45.6,43.4,30.02,NE,38,0.0,0.0,92,0.00,,SKC,0.00,0.0,WeatherDisplay:10.37,2013-03-17 10:17:00,
2013-03-17 03:22:00,45.5,43.3,30.03,NE,38,0.0,0.0,92,0.00,,SKC,0.00,0.0,WeatherDisplay:10.37,2013-03-17 10:22:00,
2013-03-17 03:27:00,45.5,43.3,30.03,NE,38,0.0,0.0,92,0.00,,SKC,0.00,0.0,WeatherDisplay:10.37,2013-03-17 10:27:00,
2013-03-17 03:32:00,45.5,43.3,30.03,NE,38,0.0,0.0,92,0.00,,SKC,0.00,0.0,WeatherDisplay:10.37,2013-03-17 10:32:00,
2013-03-17 03:37:00,45.6,43.4,30.03,NE,38,0.0,0.0,92,0.00,,SKC,0.00,0.0,WeatherDisplay:10.37,2013-03-17 10:37:00,
2013-03-17 03:42:00,45.4,43.2,30.03,NE,38,0.0,0.0,92,0.00,,SKC,0.00,0.0,WeatherDisplay:10.37,2013-03-17 10:42:00,
2013-03-17 03:47:00,45.2,43.0,30.03,NE,38,2.3,2.3,92,0.00,,SKC,0.00,0.0,WeatherDisplay:10.37,2013-03-17 10:47:00,
2013-03-17 03:52:00,45.1,42.9,30.02,NE,38,0.0,0.0,92,0.00,,SKC,0.00,0.0,WeatherDisplay:10.37,2013-03-17 10:52:00,
2013-03-17 03:58:00,44.7,42.5,30.02,NE,38,1.2,1.2,92,0.00,,SKC,0.00,0.0,WeatherDisplay:10.37,2013-03-17 10:58:00,
2013-03-17 04:03:00,44.5,42.3,30.02,NE,38,1.0,1.0,92,0.00,,SKC,0.00,0.0,WeatherDisplay:10.37,2013-03-17 11:03:00,
2013-03-17 04:08:00,44.4,42.2,30.02,NE,38,2.3,2.3,92,0.00,,SKC,0.00,0.0,WeatherDisplay:10.37,2013-03-17 11:08:00,
2013-03-17 04:13:00,44.4,42.2,30.02,NE,38,2.0,2.0,92,0.00,,SKC,0.00,0.0,WeatherDisplay:10.37,2013-03-17 11:13:00,
2013-03-17 04:18:00,44.5,42.3,30.02,NE,38,0.0,0.0,92,0.00,,SKC,0.00,0.0,WeatherDisplay:10.37,2013-03-17 11:18:00,
2013-03-17 04:23:00,44.3,42.1,30.02,NE,38,0.0,0.0,92,0.00,,SKC,0.00,0.0,WeatherDisplay:10.37,2013-03-17 11:23:00,
2013-03-17 04:28:00,44.4,42.2,30.02,NE,38,2.3,2.3,92,0.00,,SKC,0.00,0.0,WeatherDisplay:10.37,2013-03-17 11:28:00,
2013-03-17 04:33:00,44.2,42.0,30.02,NE,38,2.3,2.3,92,0.00,,SKC,0.00,0.0,WeatherDisplay:10.37,2013-03-17 11:33:00,
2013-03-17 04:38:00,43.9,41.7,30.02,NE,38,2.3,2.3,92,0.00,,SKC,0.00,0.0,WeatherDisplay:10.37,2013-03-17 11:38:00,
2013-03-17 04:43:00,43.9,41.7,30.02,NE,38,1.2,1.2,92,0.00,,SKC,0.00,0.0,WeatherDisplay:10.37,2013-03-17 11:43:00,
2013-03-17 04:48:00,43.7,41.5,30.02,NE,38,3.5,3.5,92,0.00,,SKC,0.00,0.0,WeatherDisplay:10.37,2013-03-17 11:48:00,
2013-03-17 04:53:00,43.5,41.3,30.02,NE,38,1.2,1.2,92,0.00,,SKC,0.00,0.0,WeatherDisplay:10.37,2013-03-17 11:53:00,
2013-03-17 04:58:00,43.5,41.3,30.02,NE,38,1.2,0.0,92,0.00,,SKC,0.00,0.0,WeatherDisplay:10.37,2013-03-17 11:58:00,
2013-03-17 05:03:00,43.5,41.3,30.02,NE,38,2.3,2.3,92,0.00,,SKC,0.00,0.0,WeatherDisplay:10.37,2013-03-17 12:03:00,
2013-03-17 05:08:00,43.4,41.2,30.02,NE,38,1.2,1.2,92,0.00,,SKC,0.00,0.0,WeatherDisplay:10.37,2013-03-17 12:08:00,
2013-03-17 05:13:00,43.4,41.2,30.02,NE,38,2.3,2.3,92,0.00,,SKC,0.00,0.0,WeatherDisplay:10.37,2013-03-17 12:13:00,
2013-03-17 05:18:00,43.4,41.2,30.02,NE,38,1.2,1.2,92,0.00,,SKC,0.00,0.0,WeatherDisplay:10.37,2013-03-17 12:18:00,
2013-03-17 05:23:00,43.3,41.1,30.02,NE,38,1.2,1.2,92,0.00,,SKC,0.00,0.0,WeatherDisplay:10.37,2013-03-17 12:23:00,
2013-03-17 05:28:00,43.2,41.0,30.02,NE,38,1.2,1.2,92,0.00,,SKC,0.00,0.0,WeatherDisplay:10.37,2013-03-17 12:28:00,
2013-03-17 05:33:00,43.1,40.9,30.02,NE,38,3.5,3.5,92,0.00,,SKC,0.00,0.0,WeatherDisplay:10.37,2013-03-17 12:33:00,
2013-03-17 05:38:00,42.9,40.7,30.02,NE,38,2.3,2.3,92,0.00,,SKC,0.00,0.0,WeatherDisplay:10.37,2013-03-17 12:38:00,
2013-03-17 05:43:00,42.7,40.5,30.02,NE,38,1.0,0.0,92,0.00,,SKC,0.00,0.0,WeatherDisplay:10.37,2013-03-17 12:43:00,
2013-03-17 05:48:00,42.4,40.2,30.02,NE,38,3.5,3.5,92,0.00,,SKC,0.00,0.0,WeatherDisplay:10.37,2013-03-17 12:48:00,
2013-03-17 05:53:00,42.3,40.1,30.01,NE,38,3.5,3.5,92,0.00,,SKC,0.00,0.0,WeatherDisplay:10.37,2013-03-17 12:53:00,
2013-03-17 05:58:00,42.3,40.1,30.01,NNE,30,2.3,2.3,92,0.00,,SKC,0.00,0.0,WeatherDisplay:10.37,2013-03-17 12:58:00,
2013-03-17 06:03:00,42.4,40.2,30.01,NNE,30,2.3,2.3,92,0.00,,SKC,0.00,0.0,WeatherDisplay:10.37,2013-03-17 13:03:00,
2013-03-17 06:08:00,42.6,40.4,30.02,NNE,30,3.5,3.5,92,0.00,,SKC,0.00,0.0,WeatherDisplay:10.37,2013-03-17 13:08:00,
2013-03-17 06:13:00,42.7,40.5,30.02,NNE,30,3.0,3.0,92,0.00,,SKC,0.00,0.0,WeatherDisplay:10.37,2013-03-17 13:13:00,
2013-03-17 06:18:00,42.5,40.3,30.02,NNE,30,3.5,3.5,92,0.00,,SKC,0.00,0.0,WeatherDisplay:10.37,2013-03-17 13:18:00,
2013-03-17 06:23:00,42.3,40.1,30.02,NNE,30,3.5,3.5,92,0.00,,SKC,0.00,0.0,WeatherDisplay:10.37,2013-03-17 13:23:00,
2013-03-17 06:28:00,42.2,40.0,30.02,NNE,30,3.5,3.5,92,0.00,,SKC,0.00,0.0,WeatherDisplay:10.37,2013-03-17 13:28:00,
2013-03-17 06:33:00,42.1,39.9,30.02,NNE,30,3.5,3.5,92,0.00,,SKC,0.00,0.0,WeatherDisplay:10.37,2013-03-17 13:33:00,
2013-03-17 06:38:00,42.0,39.8,30.03,NNE,30,2.3,2.4,92,0.00,,SKC,0.00,0.0,WeatherDisplay:10.37,2013-03-17 13:38:00,
2013-03-17 06:43:00,41.7,39.5,30.03,NNE,30,3.5,3.5,92,0.00,,SKC,0.00,0.0,WeatherDisplay:10.37,2013-03-17 13:43:00,
2013-03-17 06:48:00,41.6,39.4,30.03,NNE,30,3.5,3.5,92,0.00,,SKC,0.00,0.0,WeatherDisplay:10.37,2013-03-17 13:48:00,
2013-03-17 06:53:00,41.5,39.3,30.03,NNE,30,2.3,2.3,92,0.00,,SKC,0.00,0.0,WeatherDisplay:10.37,2013-03-17 13:53:00,
2013-03-17 06:58:00,41.5,39.3,30.03,NNE,30,3.5,3.5,92,0.00,,SKC,0.00,0.0,WeatherDisplay:10.37,2013-03-17 13:58:00,
2013-03-17 07:03:00,41.6,39.4,30.03,NNE,30,3.5,3.5,92,0.00,OVC,SKC,0.00,0.0,WeatherDisplay:10.37,2013-03-17 14:03:00,
2013-03-17 07:08:00,41.7,39.5,30.03,NNE,30,3.5,3.5,92,0.00,OVC,SKC,0.00,0.0,WeatherDisplay:10.37,2013-03-17 14:08:00,
2013-03-17 07:13:00,41.9,39.7,30.03,NNE,30,3.5,3.5,92,0.00,OVC,SKC,0.00,5.0,WeatherDisplay:10.37,2013-03-17 14:13:00,
2013-03-17 07:18:00,42.0,39.8,30.03,NNE,30,3.5,3.5,92,0.00,OVC,SKC,0.00,7.0,WeatherDisplay:10.37,2013-03-17 14:18:00,
2013-03-17 07:23:00,42.0,39.8,30.04,NNE,30,3.5,3.5,92,0.00,OVC,SKC,0.00,11.0,WeatherDisplay:10.37,2013-03-17 14:23:00,
2013-03-17 07:28:00,42.0,39.8,30.04,NNE,30,1.2,1.2,92,0.00,OVC,SKC,0.00,16.0,WeatherDisplay:10.37,2013-03-17 14:28:00,
2013-03-17 07:33:00,42.4,40.5,30.04,NNE,30,2.3,2.3,93,0.00,OVC,SKC,0.00,21.0,WeatherDisplay:10.37,2013-03-17 14:33:00,
2013-03-17 07:38:00,42.6,40.4,30.04,NNE,30,3.5,3.5,92,0.00,OVC,SKC,0.00,30.0,WeatherDisplay:10.37,2013-03-17 14:38:00,
2013-03-17 07:43:00,42.6,40.4,30.04,NNE,30,2.3,2.3,92,0.00,OVC,SKC,0.00,40.0,WeatherDisplay:10.37,2013-03-17 14:43:00,
2013-03-17 07:48:00,42.8,40.9,30.04,NNE,30,3.5,3.5,93,0.00,OVC,SKC,0.00,65.0,WeatherDisplay:10.37,2013-03-17 14:48:00,
2013-03-17 07:53:00,43.1,40.9,30.04,NNE,30,4.0,4.0,92,0.00,OVC,SKC,0.00,76.0,WeatherDisplay:10.37,2013-03-17 14:53:00,
2013-03-17 07:58:00,43.3,41.1,30.04,NNE,30,1.2,1.2,92,0.00,OVC,SKC,0.00,95.0,WeatherDisplay:10.37,2013-03-17 14:58:00,
2013-03-17 08:03:00,43.6,41.4,30.04,NNE,30,3.5,3.5,92,0.00,OVC,SKC,0.00,111.0,WeatherDisplay:10.37,2013-03-17 15:03:00,
2013-03-17 08:08:00,44.0,41.8,30.05,NNE,30,3.5,3.5,92,0.00,OVC,SKC,0.00,121.0,WeatherDisplay:10.37,2013-03-17 15:08:00,
2013-03-17 08:13:00,44.3,42.1,30.05,NNE,30,2.3,2.3,92,0.00,OVC,SKC,0.00,111.0,WeatherDisplay:10.37,2013-03-17 15:13:00,
2013-03-17 08:18:00,44.7,42.5,30.05,NNE,30,1.2,0.0,92,0.00,OVC,SKC,0.00,113.0,WeatherDisplay:10.37,2013-03-17 15:18:00,
2013-03-17 08:23:00,45.1,42.9,30.05,NNE,30,1.2,1.2,92,0.00,OVC,SKC,0.00,149.0,WeatherDisplay:10.37,2013-03-17 15:23:00,
2013-03-17 08:28:00,45.6,43.4,30.05,NNE,30,2.3,2.3,92,0.00,OVC,SKC,0.00,174.0,WeatherDisplay:10.37,2013-03-17 15:28:00,
2013-03-17 08:33:00,46.1,43.9,30.05,NNE,30,1.2,1.2,92,0.00,OVC,SKC,0.00,181.0,WeatherDisplay:10.37,2013-03-17 15:33:00,
2013-03-17 08:38:00,46.8,44.3,30.04,NNE,30,2.3,2.3,91,0.00,OVC,SKC,0.00,192.0,WeatherDisplay:10.37,2013-03-17 15:38:00,
2013-03-17 08:43:00,47.4,44.9,30.04,NNE,30,0.0,0.0,91,0.00,OVC,SKC,0.00,193.0,WeatherDisplay:10.37,2013-03-17 15:43:00,
2013-03-17 08:48:00,48.1,45.6,30.04,NNE,30,0.0,0.0,91,0.00,OVC,SKC,0.00,229.0,WeatherDisplay:10.37,2013-03-17 15:48:00,
2013-03-17 08:53:00,48.7,45.9,30.05,NNE,30,2.3,2.3,90,0.00,OVC,SKC,0.00,260.0,WeatherDisplay:10.37,2013-03-17 15:53:00,
2013-03-17 08:58:00,49.4,46.3,30.05,ENE,76,3.5,3.5,89,0.00,OVC,SKC,0.00,274.0,WeatherDisplay:10.37,2013-03-17 15:58:00,
2013-03-17 09:03:00,49.7,47.5,30.05,ENE,76,3.5,3.5,92,0.00,OVC,SKC,0.00,271.0,WeatherDisplay:10.37,2013-03-17 16:03:00,
2013-03-17 09:08:00,50.3,47.2,30.06,ENE,76,2.3,2.3,89,0.00,OVC,SKC,0.00,313.0,WeatherDisplay:10.37,2013-03-17 16:08:00,
2013-03-17 09:14:00,51.0,47.6,30.06,ESE,117,2.3,2.3,88,0.00,OVC,SKC,0.00,287.0,WeatherDisplay:10.37,2013-03-17 16:14:00,
2013-03-17 09:19:00,51.2,47.5,30.06,ESE,115,4.6,4.6,87,0.00,OVC,SKC,0.00,287.0,WeatherDisplay:10.37,2013-03-17 16:19:00,
2013-03-17 09:24:00,51.5,47.8,30.06,ESE,115,1.0,0.0,87,0.00,OVC,SKC,0.00,364.0,WeatherDisplay:10.37,2013-03-17 16:24:00,
2013-03-17 09:29:00,51.8,47.7,30.06,ESE,117,5.0,5.0,86,0.00,OVC,SKC,0.00,327.0,WeatherDisplay:10.37,2013-03-17 16:29:00,
2013-03-17 09:34:00,51.9,47.8,30.06,SE,132,6.0,6.0,86,0.00,OVC,SKC,0.00,403.0,WeatherDisplay:10.37,2013-03-17 16:34:00,
2013-03-17 09:39:00,51.9,47.5,30.06,SE,131,5.0,5.0,85,0.00,OVC,SKC,0.00,392.0,WeatherDisplay:10.37,2013-03-17 16:39:00,
2013-03-17 09:44:00,52.0,47.9,30.06,SE,126,5.8,5.8,86,0.00,OVC,SKC,0.00,427.0,WeatherDisplay:10.37,2013-03-17 16:44:00,
2013-03-17 09:49:00,52.2,48.1,30.06,ESE,123,4.6,4.6,86,0.00,OVC,SKC,0.00,417.0,WeatherDisplay:10.37,2013-03-17 16:49:00,
2013-03-17 09:54:00,52.5,48.1,30.06,SSE,153,4.6,4.6,85,0.00,OVC,SKC,0.00,446.0,WeatherDisplay:10.37,2013-03-17 16:54:00,
2013-03-17 09:59:00,52.5,48.1,30.06,SE,141,3.5,3.5,85,0.00,OVC,SKC,0.00,452.0,WeatherDisplay:10.37,2013-03-17 16:59:00,
2013-03-17 10:04:00,52.6,48.2,30.06,SE,140,3.5,3.5,85,0.00,OVC,SKC,0.00,492.0,WeatherDisplay:10.37,2013-03-17 17:04:00,
2013-03-17 10:09:00,52.6,48.2,30.06,SSE,148,4.6,4.6,85,0.00,OVC,SKC,0.00,508.0,WeatherDisplay:10.37,2013-03-17 17:09:00,
2013-03-17 10:14:00,52.7,48.6,30.06,SSE,149,3.5,3.5,86,0.00,OVC,SKC,0.00,485.0,WeatherDisplay:10.37,2013-03-17 17:14:00,
2013-03-17 10:19:00,52.8,48.4,30.06,SSE,158,4.0,4.0,85,0.00,OVC,SKC,0.00,524.0,WeatherDisplay:10.37,2013-03-17 17:19:00,
2013-03-17 10:24:00,53.0,48.9,30.06,SSE,167,5.8,5.8,86,0.00,OVC,SKC,0.00,520.0,WeatherDisplay:10.37,2013-03-17 17:24:00,
2013-03-17 10:29:00,53.0,48.6,30.06,SE,143,5.8,5.8,85,0.00,OVC,SKC,0.00,566.0,WeatherDisplay:10.37,2013-03-17 17:29:00,
2013-03-17 10:34:00,53.2,48.5,30.06,South,169,5.8,5.8,84,0.00,OVC,SKC,0.00,582.0,WeatherDisplay:10.37,2013-03-17 17:34:00,
2013-03-17 10:39:00,53.2,48.8,30.06,South,171,6.9,6.9,85,0.00,OVC,SKC,0.00,601.0,WeatherDisplay:10.37,2013-03-17 17:39:00,
2013-03-17 10:44:00,53.0,48.6,30.06,SSE,166,6.9,6.9,85,0.00,OVC,SKC,0.00,554.0,WeatherDisplay:10.37,2013-03-17 17:44:00,
2013-03-17 10:49:00,53.2,49.1,30.06,SE,140,2.3,2.3,86,0.00,OVC,SKC,0.00,622.0,WeatherDisplay:10.37,2013-03-17 17:49:00,
2013-03-17 10:54:00,53.4,48.7,30.06,SSE,166,5.8,5.8,84,0.00,OVC,SKC,0.00,636.0,WeatherDisplay:10.37,2013-03-17 17:54:00,
2013-03-17 10:59:00,53.6,49.5,30.06,SSE,153,3.5,3.5,86,0.00,OVC,SKC,0.00,645.0,WeatherDisplay:10.37,2013-03-17 17:59:00,
2013-03-17 11:04:00,54.3,49.6,30.06,North,360,5.8,5.8,84,0.00,OVC,SKC,0.00,661.0,WeatherDisplay:10.37,2013-03-17 18:04:00,
2013-03-17 11:09:00,54.8,49.7,30.06,SSE,162,5.8,5.8,83,0.00,OVC,SKC,0.00,666.0,WeatherDisplay:10.37,2013-03-17 18:09:00,
2013-03-17 11:14:00,54.9,49.8,30.06,SSW,205,4.6,4.6,83,0.00,OVC,SKC,0.00,679.0,WeatherDisplay:10.37,2013-03-17 18:14:00,
2013-03-17 11:19:00,54.4,49.3,30.06,SSE,161,6.9,6.9,83,0.00,OVC,SKC,0.00,703.0,WeatherDisplay:10.37,2013-03-17 18:19:00,
2013-03-17 11:24:00,54.5,50.1,30.05,SSE,156,5.0,5.0,85,0.00,OVC,SKC,0.00,715.0,WeatherDisplay:10.37,2013-03-17 18:24:00,
2013-03-17 11:29:00,54.3,49.2,30.05,SSE,155,6.0,6.0,83,0.00,OVC,SKC,0.00,728.0,WeatherDisplay:10.37,2013-03-17 18:29:00,
2013-03-17 11:34:00,53.9,49.2,30.05,SSE,148,5.8,5.8,84,0.00,OVC,SKC,0.00,729.0,WeatherDisplay:10.37,2013-03-17 18:34:00,
2013-03-17 11:39:00,54.0,49.6,30.05,SSE,165,5.8,5.8,85,0.00,OVC,SKC,0.00,726.0,WeatherDisplay:10.37,2013-03-17 18:39:00,
2013-03-17 11:44:00,53.9,49.2,30.05,SSE,164,5.8,5.8,84,0.00,OVC,SKC,0.00,735.0,WeatherDisplay:10.37,2013-03-17 18:44:00,
2013-03-17 11:49:00,53.9,49.2,30.05,SSE,152,6.9,6.9,84,0.00,OVC,SKC,0.00,696.0,WeatherDisplay:10.37,2013-03-17 18:49:00,
2013-03-17 11:54:00,53.8,49.1,30.05,South,182,6.9,6.9,84,0.00,OVC,SKC,0.00,763.0,WeatherDisplay:10.37,2013-03-17 18:54:00,
2013-03-17 11:59:00,53.8,49.1,30.05,South,169,6.9,6.9,84,0.00,OVC,SKC,0.00,751.0,WeatherDisplay:10.37,2013-03-17 18:59:00,
2013-03-17 12:04:00,53.8,49.1,30.05,South,169,6.9,6.9,84,0.00,OVC,SKC,0.00,768.0,WeatherDisplay:10.37,2013-03-17 19:04:00,
2013-03-17 12:09:00,54.1,49.4,30.04,SSE,156,6.0,6.0,84,0.00,OVC,SKC,0.00,789.0,WeatherDisplay:10.37,2013-03-17 19:09:00,
2013-03-17 12:14:00,54.5,49.1,30.04,South,188,7.0,7.0,82,0.00,OVC,SKC,0.00,793.0,WeatherDisplay:10.37,2013-03-17 19:14:00,
2013-03-17 12:19:00,54.4,49.0,30.04,SE,141,6.0,6.0,82,0.00,OVC,SKC,0.00,791.0,WeatherDisplay:10.37,2013-03-17 19:19:00,
2013-03-17 12:24:00,55.1,49.7,30.05,SSE,155,6.0,6.0,82,0.00,OVC,SKC,0.00,796.0,WeatherDisplay:10.37,2013-03-17 19:24:00,
2013-03-17 12:29:00,56.0,49.9,30.05,SSW,196,5.8,5.8,80,0.00,OVC,SKC,0.00,803.0,WeatherDisplay:10.37,2013-03-17 19:29:00,
2013-03-17 12:34:00,56.4,49.6,30.05,SE,136,7.0,7.0,78,0.00,OVC,SKC,0.00,812.0,WeatherDisplay:10.37,2013-03-17 19:34:00,
2013-03-17 12:39:00,56.4,48.9,30.04,South,186,5.8,5.8,76,0.00,OVC,SKC,0.00,809.0,WeatherDisplay:10.37,2013-03-17 19:39:00,
2013-03-17 12:44:00,55.9,48.8,30.04,SSE,150,5.8,5.8,77,0.00,OVC,SKC,0.00,835.0,WeatherDisplay:10.37,2013-03-17 19:44:00,
2013-03-17 12:49:00,56.2,48.0,30.04,SSW,208,4.6,4.6,74,0.00,OVC,SKC,0.00,831.0,WeatherDisplay:10.37,2013-03-17 19:49:00,
2013-03-17 12:54:00,56.6,47.7,30.04,South,186,5.8,5.8,72,0.00,OVC,SKC,0.00,817.0,WeatherDisplay:10.37,2013-03-17 19:54:00,
2013-03-17 12:59:00,57.1,48.2,30.04,ESE,117,5.8,5.8,72,0.00,OVC,SKC,0.00,812.0,WeatherDisplay:10.37,2013-03-17 19:59:00,
2013-03-17 13:04:00,57.6,48.3,30.04,WSW,254,5.8,5.8,71,0.00,OVC,SKC,0.00,814.0,WeatherDisplay:10.37,2013-03-17 20:04:00,
2013-03-17 13:09:00,57.1,48.2,30.03,WSW,238,4.6,4.6,72,0.00,OVC,SKC,0.00,803.0,WeatherDisplay:10.37,2013-03-17 20:09:00,
2013-03-17 13:14:00,57.4,48.1,30.03,SW,226,6.9,6.9,71,0.00,OVC,SKC,0.00,840.0,WeatherDisplay:10.37,2013-03-17 20:14:00,
2013-03-17 13:19:00,57.5,47.0,30.03,SW,229,8.1,8.1,68,0.00,OVC,SKC,0.00,823.0,WeatherDisplay:10.37,2013-03-17 20:19:00,
2013-03-17 13:24:00,57.6,46.7,30.02,WSW,254,7.0,7.0,67,0.00,OVC,SKC,0.00,810.0,WeatherDisplay:10.37,2013-03-17 20:24:00,
2013-03-17 13:29:00,57.2,47.1,30.02,SW,232,6.9,6.9,69,0.00,OVC,SKC,0.00,821.0,WeatherDisplay:10.37,2013-03-17 20:29:00,
2013-03-17 13:34:00,58.2,47.7,30.02,SSW,198,4.6,4.6,68,0.00,OVC,SKC,0.00,824.0,WeatherDisplay:10.37,2013-03-17 20:34:00,
2013-03-17 13:39:00,58.9,47.2,30.02,SSW,211,3.5,3.5,65,0.00,OVC,SKC,0.00,814.0,WeatherDisplay:10.37,2013-03-17 20:39:00,
2013-03-17 13:44:00,59.1,48.1,30.02,SW,230,5.8,5.8,67,0.00,OVC,SKC,0.00,821.0,WeatherDisplay:10.37,2013-03-17 20:44:00,
2013-03-17 13:49:00,59.1,46.1,30.02,WSW,246,8.1,8.1,62,0.00,OVC,SKC,0.00,821.0,WeatherDisplay:10.37,2013-03-17 20:49:00,
2013-03-17 13:54:00,59.1,46.1,30.01,SSW,213,6.9,6.9,62,0.00,OVC,SKC,0.00,814.0,WeatherDisplay:10.37,2013-03-17 20:54:00,
2013-03-17 13:59:00,59.5,46.5,30.01,West,263,5.8,5.8,62,0.00,OVC,SKC,0.00,817.0,WeatherDisplay:10.37,2013-03-17 20:59:00,
2013-03-17 14:04:00,60.0,46.5,30.01,SW,229,5.8,5.8,61,0.00,OVC,SKC,0.00,816.0,WeatherDisplay:10.37,2013-03-17 21:04:00,
2013-03-17 14:09:00,59.9,47.7,30.00,SW,216,5.8,5.8,64,0.00,OVC,SKC,0.00,793.0,WeatherDisplay:10.37,2013-03-17 21:09:00,
2013-03-17 14:14:00,60.6,48.4,30.00,WSW,244,6.9,6.9,64,0.00,OVC,SKC,0.00,807.0,WeatherDisplay:10.37,2013-03-17 21:14:00,
2013-03-17 14:19:00,60.3,48.1,30.00,SW,229,10.4,10.4,64,0.00,OVC,SKC,0.00,803.0,WeatherDisplay:10.37,2013-03-17 21:19:00,
2013-03-17 14:24:00,60.2,48.4,29.99,SW,225,9.2,9.2,65,0.00,OVC,SKC,0.00,791.0,WeatherDisplay:10.37,2013-03-17 21:24:00,
2013-03-17 14:29:00,60.6,48.8,29.99,SW,215,8.1,8.1,65,0.00,OVC,SKC,0.00,788.0,WeatherDisplay:10.37,2013-03-17 21:29:00,
2013-03-17 14:34:00,60.5,49.1,29.99,WSW,244,11.5,11.5,66,0.00,OVC,SKC,0.00,784.0,WeatherDisplay:10.37,2013-03-17 21:34:00,
2013-03-17 14:39:00,60.1,49.1,29.99,WNW,286,8.1,8.1,67,0.00,OVC,SKC,0.00,773.0,WeatherDisplay:10.37,2013-03-17 21:39:00,
2013-03-17 14:44:00,59.8,49.2,29.99,WSW,242,11.5,11.5,68,0.00,OVC,SKC,0.00,772.0,WeatherDisplay:10.37,2013-03-17 21:44:00,
2013-03-17 14:49:00,59.6,49.0,29.99,West,261,11.5,11.5,68,0.00,OVC,SKC,0.00,761.0,WeatherDisplay:10.37,2013-03-17 21:49:00,
2013-03-17 14:54:00,60.1,49.5,29.98,SW,219,7.0,7.0,68,0.00,OVC,SKC,0.00,751.0,WeatherDisplay:10.37,2013-03-17 21:54:00,
2013-03-17 14:59:00,60.5,49.9,29.98,SW,223,8.1,8.1,68,0.00,OVC,SKC,0.00,747.0,WeatherDisplay:10.37,2013-03-17 21:59:00,
2013-03-17 15:04:00,60.8,50.2,29.98,SW,216,6.9,6.9,68,0.00,OVC,SKC,0.00,738.0,WeatherDisplay:10.37,2013-03-17 22:04:00,
2013-03-17 15:09:00,60.2,49.6,29.98,SW,236,6.9,6.9,68,0.00,OVC,SKC,0.00,733.0,WeatherDisplay:10.37,2013-03-17 22:09:00,
2013-03-17 15:14:00,60.5,50.3,29.98,SW,229,8.1,8.1,69,0.00,OVC,SKC,0.00,721.0,WeatherDisplay:10.37,2013-03-17 22:14:00,
2013-03-17 15:19:00,60.2,50.0,29.98,SW,235,8.1,8.1,69,0.00,BKN,SKC,0.00,710.0,WeatherDisplay:10.37,2013-03-17 22:19:00,
2013-03-17 15:24:00,60.5,50.7,29.97,WSW,244,9.2,9.2,70,0.00,SCT,SKC,0.00,700.0,WeatherDisplay:10.37,2013-03-17 22:24:00,
2013-03-17 15:29:00,60.5,50.3,29.97,WSW,248,6.9,6.9,69,0.00,CLR,SKC,0.00,694.0,WeatherDisplay:10.37,2013-03-17 22:29:00,
2013-03-17 15:34:00,60.5,50.7,29.97,SW,228,6.0,6.0,70,0.00,CLR,SKC,0.00,701.0,WeatherDisplay:10.37,2013-03-17 22:34:00,
2013-03-17 15:39:00,61.1,51.2,29.97,SW,221,6.9,6.9,70,0.00,CLR,SKC,0.00,700.0,WeatherDisplay:10.37,2013-03-17 22:39:00,
2013-03-17 15:44:00,61.3,51.0,29.97,SW,220,6.9,6.9,69,0.00,CLR,SKC,0.00,701.0,WeatherDisplay:10.37,2013-03-17 22:44:00,
2013-03-17 15:49:00,61.0,50.8,29.97,WSW,244,7.0,7.0,69,0.00,CLR,SKC,0.00,663.0,WeatherDisplay:10.37,2013-03-17 22:49:00,
2013-03-17 15:54:00,60.9,51.0,29.97,SW,231,8.1,8.1,70,0.00,CLR,SKC,0.00,624.0,WeatherDisplay:10.37,2013-03-17 22:54:00,
2013-03-17 15:59:00,61.0,51.5,29.97,WSW,253,5.8,5.8,71,0.00,CLR,SKC,0.00,624.0,WeatherDisplay:10.37,2013-03-17 22:59:00,
2013-03-17 16:04:00,61.1,50.8,29.97,WSW,251,8.1,8.1,69,0.00,CLR,SKC,0.00,636.0,WeatherDisplay:10.37,2013-03-17 23:04:00,
2013-03-17 16:09:00,60.7,50.9,29.96,SSW,213,5.0,5.0,70,0.00,CLR,SKC,0.00,603.0,WeatherDisplay:10.37,2013-03-17 23:09:00,
2013-03-17 16:14:00,61.3,50.6,29.96,WSW,247,6.9,6.9,68,0.00,CLR,SKC,0.00,554.0,WeatherDisplay:10.37,2013-03-17 23:14:00,
2013-03-17 16:19:00,61.7,51.0,29.96,SW,221,4.0,4.0,68,0.00,CLR,SKC,0.00,499.0,WeatherDisplay:10.37,2013-03-17 23:19:00,
2013-03-17 16:24:00,62.7,51.6,29.96,SSW,213,4.6,4.6,67,0.00,CLR,SKC,0.00,448.0,WeatherDisplay:10.37,2013-03-17 23:24:00,
2013-03-17 16:29:00,62.7,51.2,29.96,SW,219,5.8,5.8,66,0.00,CLR,SKC,0.00,452.0,WeatherDisplay:10.37,2013-03-17 23:29:00,
2013-03-17 16:34:00,62.5,51.0,29.96,SW,216,4.6,4.6,66,0.00,CLR,SKC,0.00,376.0,WeatherDisplay:10.37,2013-03-17 23:34:00,
2013-03-17 16:39:00,61.8,50.3,29.96,SSW,210,4.0,4.0,66,0.00,CLR,SKC,0.00,207.0,WeatherDisplay:10.37,2013-03-17 23:39:00,
2013-03-17 16:44:00,61.1,49.7,29.96,SW,215,3.5,3.5,66,0.00,CLR,SKC,0.00,357.0,WeatherDisplay:10.37,2013-03-17 23:44:00,
2013-03-17 16:49:00,61.2,50.2,29.96,ENE,64,3.5,3.5,67,0.00,CLR,SKC,0.00,452.0,WeatherDisplay:10.37,2013-03-17 23:49:00,
2013-03-17 16:54:00,61.5,50.0,29.96,ENE,57,8.1,8.1,66,0.00,CLR,SKC,0.00,468.0,WeatherDisplay:10.37,2013-03-17 23:54:00,
2013-03-17 16:59:00,61.5,49.6,29.96,ESE,106,10.4,10.4,65,0.00,CLR,SKC,0.00,452.0,WeatherDisplay:10.37,2013-03-17 23:59:00,
2013-03-17 17:04:00,60.9,48.6,29.96,ENE,66,10.4,10.4,64,0.00,CLR,SKC,0.00,455.0,WeatherDisplay:10.37,2013-03-18 00:04:00,
2013-03-17 17:09:00,60.9,50.3,29.96,ENE,69,4.6,4.6,68,0.00,CLR,SKC,0.00,427.0,WeatherDisplay:10.37,2013-03-18 00:09:00,
2013-03-17 17:14:00,61.0,51.1,29.96,ESE,105,7.0,7.0,70,0.00,CLR,SKC,0.00,455.0,WeatherDisplay:10.37,2013-03-18 00:14:00,
2013-03-17 17:19:00,60.4,51.7,29.96,ENE,69,6.0,6.0,73,0.00,CLR,SKC,0.00,425.0,WeatherDisplay:10.37,2013-03-18 00:19:00,
2013-03-17 17:24:00,59.8,51.5,29.96,NE,47,5.8,5.8,74,0.00,CLR,SKC,0.00,408.0,WeatherDisplay:10.37,2013-03-18 00:24:00,
2013-03-17 17:29:00,59.7,51.8,29.96,ENE,73,4.6,4.6,75,0.00,CLR,SKC,0.00,397.0,WeatherDisplay:10.37,2013-03-18 00:29:00,
2013-03-17 17:34:00,59.5,51.6,29.96,East,91,5.8,5.8,75,0.00,CLR,SKC,0.00,325.0,WeatherDisplay:10.37,2013-03-18 00:34:00,
2013-03-17 17:39:00,59.4,51.8,29.96,SE,143,5.8,5.8,76,0.00,CLR,SKC,0.00,262.0,WeatherDisplay:10.37,2013-03-18 00:39:00,
2013-03-17 17:44:00,58.7,50.4,29.96,SE,142,6.9,6.9,74,0.00,SCT,SKC,0.00,220.0,WeatherDisplay:10.37,2013-03-18 00:44:00,
2013-03-17 17:49:00,58.5,50.2,29.96,SSE,150,5.8,5.8,74,0.00,BKN,SKC,0.00,186.0,WeatherDisplay:10.37,2013-03-18 00:49:00,
2013-03-17 17:54:00,58.7,49.7,29.95,SSE,153,5.0,5.0,72,0.00,BKN,SKC,0.00,230.0,WeatherDisplay:10.37,2013-03-18 00:54:00,
2013-03-17 17:59:00,59.1,49.3,29.95,SSE,152,1.2,1.2,70,0.00,BKN,SKC,0.00,211.0,WeatherDisplay:10.37,2013-03-18 00:59:00,
2013-03-17 18:04:00,59.4,49.2,29.95,SSE,152,1.2,1.2,69,0.00,BKN,SKC,0.00,165.0,WeatherDisplay:10.37,2013-03-18 01:04:00,
2013-03-17 18:09:00,59.4,48.4,29.95,SSE,152,2.3,2.3,67,0.00,BKN,SKC,0.00,105.0,WeatherDisplay:10.37,2013-03-18 01:09:00,
2013-03-17 18:14:00,59.5,48.5,29.95,SSE,152,2.3,2.3,67,0.00,BKN,SKC,0.00,76.0,WeatherDisplay:10.37,2013-03-18 01:14:00,
2013-03-17 18:19:00,59.5,48.1,29.95,SSE,152,2.0,2.0,66,0.00,BKN,SKC,0.00,76.0,WeatherDisplay:10.37,2013-03-18 01:19:00,
2013-03-17 18:24:00,59.3,48.7,29.95,SSE,152,2.3,2.3,68,0.00,BKN,SKC,0.00,79.0,WeatherDisplay:10.37,2013-03-18 01:24:00,
2013-03-17 18:29:00,59.2,48.6,29.95,SE,135,4.6,4.6,68,0.00,BKN,SKC,0.00,72.0,WeatherDisplay:10.37,2013-03-18 01:29:00,
2013-03-17 18:34:00,59.0,48.8,29.95,SE,130,5.8,5.8,69,0.00,BKN,SKC,0.00,62.0,WeatherDisplay:10.37,2013-03-18 01:34:00,
2013-03-17 18:39:00,58.8,49.4,29.96,SE,140,5.0,5.0,71,0.00,BKN,SKC,0.00,49.0,WeatherDisplay:10.37,2013-03-18 01:39:00,
2013-03-17 18:44:00,58.5,49.5,29.96,SSE,157,6.9,6.9,72,0.00,BKN,SKC,0.00,33.0,WeatherDisplay:10.37,2013-03-18 01:44:00,
2013-03-17 18:49:00,58.0,49.4,29.96,SE,135,7.0,7.0,73,0.00,OVC,SKC,0.00,25.0,WeatherDisplay:10.37,2013-03-18 01:49:00,
2013-03-17 18:54:00,57.2,49.3,29.96,SSE,153,8.1,8.1,75,0.00,OVC,SKC,0.00,18.0,WeatherDisplay:10.37,2013-03-18 01:54:00,
2013-03-17 18:59:00,56.3,49.2,29.96,SSE,158,10.4,10.4,77,0.00,OVC,SKC,0.00,16.0,WeatherDisplay:10.37,2013-03-18 01:59:00,
2013-03-17 19:04:00,55.6,49.2,29.96,SE,133,9.2,9.2,79,0.00,OVC,SKC,0.00,14.0,WeatherDisplay:10.37,2013-03-18 02:04:00,
2013-03-17 19:09:00,54.8,48.7,29.97,SSE,167,11.5,11.5,80,0.00,OVC,SKC,0.00,11.0,WeatherDisplay:10.37,2013-03-18 02:09:00,
2013-03-17 19:14:00,54.3,48.9,29.97,South,182,10.4,10.4,82,0.00,OVC,SKC,0.00,5.0,WeatherDisplay:10.37,2013-03-18 02:14:00,
2013-03-17 19:19:00,54.0,48.6,29.97,SE,136,8.0,8.0,82,0.00,OVC,SKC,0.00,0.0,WeatherDisplay:10.37,2013-03-18 02:19:00,
2013-03-17 19:24:00,53.6,48.6,29.98,SSE,159,11.5,11.5,83,0.00,OVC,SKC,0.00,0.0,WeatherDisplay:10.37,2013-03-18 02:24:00,
2013-03-17 19:29:00,53.3,48.3,29.98,SE,140,6.9,6.9,83,0.00,OVC,SKC,0.00,0.0,WeatherDisplay:10.37,2013-03-18 02:29:00,
2013-03-17 19:34:00,53.1,48.1,29.98,SE,129,6.9,6.9,83,0.00,OVC,SKC,0.00,0.0,WeatherDisplay:10.37,2013-03-18 02:34:00,
2013-03-17 19:39:00,53.0,48.0,29.98,SSE,159,7.0,7.0,83,0.00,OVC,SKC,0.00,0.0,WeatherDisplay:10.37,2013-03-18 02:39:00,
2013-03-17 19:44:00,53.0,48.0,29.98,ESE,114,6.9,6.9,83,0.00,OVC,SKC,0.00,0.0,WeatherDisplay:10.37,2013-03-18 02:44:00,
2013-03-17 19:49:00,52.8,47.8,29.98,ESE,110,9.2,9.2,83,0.00,,SKC,0.00,0.0,WeatherDisplay:10.37,2013-03-18 02:49:00,
2013-03-17 19:54:00,52.8,47.8,29.98,ESE,113,11.5,11.5,83,0.00,,SKC,0.00,0.0,WeatherDisplay:10.37,2013-03-18 02:54:00,
2013-03-17 19:59:00,52.7,48.0,29.98,SE,133,11.5,11.5,84,0.00,,SKC,0.00,0.0,WeatherDisplay:10.37,2013-03-18 02:59:00,
2013-03-17 20:04:00,52.6,47.6,29.98,East,87,9.0,9.0,83,0.00,,SKC,0.00,0.0,WeatherDisplay:10.37,2013-03-18 03:04:00,
2013-03-17 20:09:00,52.6,47.6,29.98,East,94,8.1,8.1,83,0.00,,SKC,0.00,0.0,WeatherDisplay:10.37,2013-03-18 03:09:00,
2013-03-17 20:14:00,52.5,47.5,29.98,East,92,9.2,9.2,83,0.00,,SKC,0.00,0.0,WeatherDisplay:10.37,2013-03-18 03:14:00,
2013-03-17 20:19:00,52.3,47.3,29.98,East,96,9.2,9.2,83,0.00,,SKC,0.00,0.0,WeatherDisplay:10.37,2013-03-18 03:19:00,
2013-03-17 20:24:00,52.3,47.6,29.99,ESE,103,6.0,8.0,84,0.00,,SKC,0.00,0.0,WeatherDisplay:10.37,2013-03-18 03:24:00,
2013-03-17 20:29:00,52.2,47.5,29.99,ESE,103,8.1,8.1,84,0.00,,SKC,0.00,0.0,WeatherDisplay:10.37,2013-03-18 03:29:00,
2013-03-17 20:34:00,52.2,47.2,29.99,East,98,6.0,9.0,83,0.00,,SKC,0.00,0.0,WeatherDisplay:10.37,2013-03-18 03:34:00,
2013-03-17 20:39:00,52.1,47.1,29.99,East,94,5.8,5.8,83,0.00,,SKC,0.00,0.0,WeatherDisplay:10.37,2013-03-18 03:39:00,
2013-03-17 20:44:00,52.1,47.1,29.99,East,96,8.1,8.1,83,0.00,,SKC,0.00,0.0,WeatherDisplay:10.37,2013-03-18 03:44:00,
2013-03-17 20:49:00,52.0,47.0,29.99,East,92,6.0,8.0,83,0.00,,SKC,0.00,0.0,WeatherDisplay:10.37,2013-03-18 03:49:00,
2013-03-17 20:55:00,51.9,46.9,29.99,East,96,5.8,5.8,83,0.00,,SKC,0.00,0.0,WeatherDisplay:10.37,2013-03-18 03:55:00,
2013-03-17 21:00:00,51.9,46.9,29.99,East,98,4.6,4.6,83,0.00,,SKC,0.00,0.0,WeatherDisplay:10.37,2013-03-18 04:00:00,
2013-03-17 21:05:00,51.9,46.9,29.99,ENE,76,5.0,5.0,83,0.00,,SKC,0.00,0.0,WeatherDisplay:10.37,2013-03-18 04:05:00,
2013-03-17 21:10:00,51.9,46.9,29.99,ESE,109,5.0,5.0,83,0.00,,SKC,0.00,0.0,WeatherDisplay:10.37,2013-03-18 04:10:00,
2013-03-17 21:15:00,51.8,46.8,29.99,East,96,6.9,6.9,83,0.00,,SKC,0.00,0.0,WeatherDisplay:10.37,2013-03-18 04:15:00,
2013-03-17 21:20:00,51.8,46.8,29.99,East,98,6.0,6.0,83,0.00,,SKC,0.00,0.0,WeatherDisplay:10.37,2013-03-18 04:20:00,
2013-03-17 21:25:00,51.7,46.7,30.00,East,91,4.6,4.6,83,0.00,,SKC,0.00,0.0,WeatherDisplay:10.37,2013-03-18 04:25:00,
2013-03-17 21:30:00,51.6,46.6,30.00,East,93,6.0,6.0,83,0.00,,SKC,0.00,0.0,WeatherDisplay:10.37,2013-03-18 04:30:00,
2013-03-17 21:35:00,51.5,46.5,30.00,ESE,103,6.9,6.9,83,0.00,,SKC,0.00,0.0,WeatherDisplay:10.37,2013-03-18 04:35:00,
2013-03-17 21:40:00,51.5,46.5,30.01,ESE,105,4.6,4.6,83,0.00,,SKC,0.00,0.0,WeatherDisplay:10.37,2013-03-18 04:40:00,
2013-03-17 21:45:00,51.5,46.8,30.01,East,93,5.0,5.0,84,0.00,,SKC,0.00,0.0,WeatherDisplay:10.37,2013-03-18 04:45:00,
2013-03-17 21:50:00,51.4,46.4,30.01,East,99,5.8,5.8,83,0.00,,SKC,0.00,0.0,WeatherDisplay:10.37,2013-03-18 04:50:00,
2013-03-17 21:55:00,51.4,46.4,30.01,East,101,3.5,3.5,83,0.00,,SKC,0.00,0.0,WeatherDisplay:10.37,2013-03-18 04:55:00,
2013-03-17 22:00:00,51.3,46.3,30.01,East,88,5.8,5.8,83,0.00,,SKC,0.00,0.0,WeatherDisplay:10.37,2013-03-18 05:00:00,
2013-03-17 22:05:00,51.2,46.2,30.01,East,94,4.6,4.6,83,0.00,,SKC,0.00,0.0,WeatherDisplay:10.37,2013-03-18 05:05:00,
2013-03-17 22:10:00,51.1,46.1,30.01,East,91,4.0,4.0,83,0.00,CLR,SKC,0.00,0.0,WeatherDisplay:10.37,2013-03-18 05:10:00,
2013-03-17 22:15:00,51.0,46.0,30.01,ESE,102,6.0,6.0,83,0.00,CLR,SKC,0.00,0.0,WeatherDisplay:10.37,2013-03-18 05:15:00,
2013-03-17 22:20:00,51.0,46.0,30.01,East,101,3.5,3.5,83,0.00,CLR,SKC,0.00,0.0,WeatherDisplay:10.37,2013-03-18 05:20:00,
2013-03-17 22:25:00,51.0,46.0,30.01,NE,55,3.5,3.5,83,0.00,CLR,SKC,0.00,0.0,WeatherDisplay:10.37,2013-03-18 05:25:00,
2013-03-17 22:30:00,50.8,45.8,30.01,ENE,64,3.0,3.0,83,0.00,CLR,SKC,0.00,0.0,WeatherDisplay:10.37,2013-03-18 05:30:00,
2013-03-17 22:35:00,50.7,45.7,30.01,ENE,64,3.5,3.5,83,0.00,CLR,SKC,0.00,0.0,WeatherDisplay:10.37,2013-03-18 05:35:00,
2013-03-17 22:40:00,50.6,45.6,30.01,East,81,3.5,3.5,83,0.00,CLR,SKC,0.00,0.0,WeatherDisplay:10.37,2013-03-18 05:40:00,
2013-03-17 22:45:00,50.5,45.5,30.01,East,81,2.3,2.3,83,0.00,CLR,SKC,0.00,0.0,WeatherDisplay:10.37,2013-03-18 05:45:00,
2013-03-17 22:50:00,50.5,45.5,30.01,ESE,108,3.5,3.5,83,0.00,CLR,SKC,0.00,0.0,WeatherDisplay:10.37,2013-03-18 05:50:00,
2013-03-17 22:55:00,50.6,45.6,30.01,ESE,104,4.0,4.0,83,0.00,CLR,SKC,0.00,0.0,WeatherDisplay:10.37,2013-03-18 05:55:00,
2013-03-17 23:00:00,50.6,45.6,30.01,East,98,6.0,6.0,83,0.00,CLR,SKC,0.00,0.0,WeatherDisplay:10.37,2013-03-18 06:00:00,
2013-03-17 23:05:00,50.6,45.6,30.01,ESE,109,5.8,5.8,83,0.00,CLR,SKC,0.00,0.0,WeatherDisplay:10.37,2013-03-18 06:05:00,
2013-03-17 23:10:00,50.6,45.6,30.01,East,99,4.0,4.0,83,0.00,,SKC,0.00,0.0,WeatherDisplay:10.37,2013-03-18 06:10:00,
2013-03-17 23:15:00,50.6,45.6,30.01,East,99,3.5,3.5,83,0.00,,SKC,0.00,0.0,WeatherDisplay:10.37,2013-03-18 06:15:00,
2013-03-17 23:20:00,50.6,45.6,30.01,East,98,1.2,0.0,83,0.00,,SKC,0.00,0.0,WeatherDisplay:10.37,2013-03-18 06:20:00,
2013-03-17 23:25:00,50.5,45.5,30.02,East,98,0.0,0.0,83,0.00,,SKC,0.00,0.0,WeatherDisplay:10.37,2013-03-18 06:25:00,
2013-03-17 23:30:00,50.2,45.6,30.02,East,99,1.2,1.2,84,0.00,,SKC,0.00,0.0,WeatherDisplay:10.37,2013-03-18 06:30:00,
2013-03-17 23:35:00,49.7,45.1,30.02,East,98,2.3,2.3,84,0.00,,SKC,0.00,0.0,WeatherDisplay:10.37,2013-03-18 06:35:00,
2013-03-17 23:40:00,49.4,44.8,30.01,East,98,0.0,0.0,84,0.00,,SKC,0.00,0.0,WeatherDisplay:10.37,2013-03-18 06:40:00,
2013-03-17 23:45:00,49.0,44.7,30.01,East,98,0.0,0.0,85,0.00,,SKC,0.00,0.0,WeatherDisplay:10.37,2013-03-18 06:45:00,
2013-03-17 23:50:00,48.7,44.4,30.01,East,98,2.3,2.3,85,0.00,,SKC,0.00,0.0,WeatherDisplay:10.37,2013-03-18 06:50:00,
2013-03-17 23:55:00,48.6,44.3,30.01,East,98,1.2,1.2,85,0.00,,SKC,0.00,0.0,WeatherDisplay:10.37,2013-03-18 06:55:00,